sensor_id;sensor_type;location;lat;lon;timestamp;P1;durP1;ratioP1;P2;durP2;ratioP2
83151;SDS011;73381;58.502;8.624;2023-11-18T00:01:07;5.97;;;1.85;;
83151;SDS011;73381;58.502;8.624;2023-11-18T00:07:13;3.53;;;0.88;;
83151;SDS011;73381;58.502;8.624;2023-11-18T00:10:16;4.95;;;1.40;;
83151;SDS011;73381;58.502;8.624;2023-11-18T00:13:18;4.40;;;1.35;;
83151;SDS011;73381;58.502;8.624;2023-11-18T00:16:20;2.50;;;1.30;;
83151;SDS011;73381;58.502;8.624;2023-11-18T00:19:22;5.53;;;1.88;;
83151;SDS011;73381;58.502;8.624;2023-11-18T00:22:26;2.95;;;1.38;;
83151;SDS011;73381;58.502;8.624;2023-11-18T00:25:27;6.97;;;1.92;;
83151;SDS011;73381;58.502;8.624;2023-11-18T00:28:29;2.28;;;0.88;;
83151;SDS011;73381;58.502;8.624;2023-11-18T00:31:31;1.95;;;0.80;;
83151;SDS011;73381;58.502;8.624;2023-11-18T00:34:33;4.22;;;1.33;;
83151;SDS011;73381;58.502;8.624;2023-11-18T00:37:37;4.50;;;1.00;;
83151;SDS011;73381;58.502;8.624;2023-11-18T00:40:39;2.92;;;0.60;;
83151;SDS011;73381;58.502;8.624;2023-11-18T00:43:41;3.60;;;1.23;;
83151;SDS011;73381;58.502;8.624;2023-11-18T00:46:43;2.63;;;0.63;;
83151;SDS011;73381;58.502;8.624;2023-11-18T00:49:45;1.98;;;0.60;;
83151;SDS011;73381;58.502;8.624;2023-11-18T00:52:48;2.38;;;0.88;;
83151;SDS011;73381;58.502;8.624;2023-11-18T00:55:50;3.80;;;1.05;;
83151;SDS011;73381;58.502;8.624;2023-11-18T00:58:52;1.83;;;0.68;;
83151;SDS011;73381;58.502;8.624;2023-11-18T01:01:54;1.58;;;0.60;;
83151;SDS011;73381;58.502;8.624;2023-11-18T01:04:56;1.10;;;0.55;;
83151;SDS011;73381;58.502;8.624;2023-11-18T01:08:00;1.52;;;0.60;;
83151;SDS011;73381;58.502;8.624;2023-11-18T01:11:02;4.25;;;0.90;;
83151;SDS011;73381;58.502;8.624;2023-11-18T01:14:05;3.25;;;1.10;;
83151;SDS011;73381;58.502;8.624;2023-11-18T01:17:07;2.05;;;0.80;;
83151;SDS011;73381;58.502;8.624;2023-11-18T01:20:09;2.75;;;0.82;;
83151;SDS011;73381;58.502;8.624;2023-11-18T01:23:14;1.77;;;0.82;;
83151;SDS011;73381;58.502;8.624;2023-11-18T01:26:16;2.38;;;0.82;;
83151;SDS011;73381;58.502;8.624;2023-11-18T01:29:18;2.22;;;0.85;;
83151;SDS011;73381;58.502;8.624;2023-11-18T01:32:20;2.88;;;0.88;;
83151;SDS011;73381;58.502;8.624;2023-11-18T01:35:22;3.78;;;0.80;;
83151;SDS011;73381;58.502;8.624;2023-11-18T01:38:25;1.92;;;0.57;;
83151;SDS011;73381;58.502;8.624;2023-11-18T01:41:27;2.28;;;0.88;;
83151;SDS011;73381;58.502;8.624;2023-11-18T01:44:29;1.80;;;0.63;;
83151;SDS011;73381;58.502;8.624;2023-11-18T01:47:31;2.33;;;0.73;;
83151;SDS011;73381;58.502;8.624;2023-11-18T01:50:34;2.58;;;0.93;;
83151;SDS011;73381;58.502;8.624;2023-11-18T01:53:37;1.77;;;0.73;;
83151;SDS011;73381;58.502;8.624;2023-11-18T01:56:41;2.97;;;0.80;;
83151;SDS011;73381;58.502;8.624;2023-11-18T01:59:44;0.77;;;0.22;;
83151;SDS011;73381;58.502;8.624;2023-11-18T02:02:46;1.30;;;0.40;;
83151;SDS011;73381;58.502;8.624;2023-11-18T02:05:48;1.80;;;0.57;;
83151;SDS011;73381;58.502;8.624;2023-11-18T02:08:51;1.35;;;0.50;;
83151;SDS011;73381;58.502;8.624;2023-11-18T02:11:55;3.67;;;0.80;;
83151;SDS011;73381;58.502;8.624;2023-11-18T02:15:02;2.15;;;0.47;;
83151;SDS011;73381;58.502;8.624;2023-11-18T02:18:08;0.70;;;0.30;;
83151;SDS011;73381;58.502;8.624;2023-11-18T02:21:11;1.40;;;0.60;;
83151;SDS011;73381;58.502;8.624;2023-11-18T02:24:25;0.77;;;0.28;;
83151;SDS011;73381;58.502;8.624;2023-11-18T02:27:29;0.60;;;0.25;;
83151;SDS011;73381;58.502;8.624;2023-11-18T02:30:31;0.77;;;0.30;;
83151;SDS011;73381;58.502;8.624;2023-11-18T02:33:33;1.45;;;0.65;;
83151;SDS011;73381;58.502;8.624;2023-11-18T02:36:43;0.93;;;0.35;;
83151;SDS011;73381;58.502;8.624;2023-11-18T02:39:48;1.83;;;0.57;;
83151;SDS011;73381;58.502;8.624;2023-11-18T02:42:58;1.17;;;0.47;;
83151;SDS011;73381;58.502;8.624;2023-11-18T02:46:02;2.10;;;0.70;;
83151;SDS011;73381;58.502;8.624;2023-11-18T02:49:05;2.90;;;0.80;;
83151;SDS011;73381;58.502;8.624;2023-11-18T02:52:06;1.58;;;0.63;;
83151;SDS011;73381;58.502;8.624;2023-11-18T02:55:09;0.28;;;0.08;;
83151;SDS011;73381;58.502;8.624;2023-11-18T02:58:14;1.45;;;0.68;;
83151;SDS011;73381;58.502;8.624;2023-11-18T03:01:18;0.40;;;0.15;;
83151;SDS011;73381;58.502;8.624;2023-11-18T03:04:20;1.15;;;0.60;;
83151;SDS011;73381;58.502;8.624;2023-11-18T03:07:22;0.47;;;0.30;;
83151;SDS011;73381;58.502;8.624;2023-11-18T03:10:24;1.95;;;0.60;;
83151;SDS011;73381;58.502;8.624;2023-11-18T03:13:28;1.15;;;0.43;;
83151;SDS011;73381;58.502;8.624;2023-11-18T03:16:30;2.72;;;0.75;;
83151;SDS011;73381;58.502;8.624;2023-11-18T03:19:32;1.45;;;0.60;;
83151;SDS011;73381;58.502;8.624;2023-11-18T03:22:34;1.70;;;0.45;;
83151;SDS011;73381;58.502;8.624;2023-11-18T03:25:36;1.58;;;0.73;;
83151;SDS011;73381;58.502;8.624;2023-11-18T03:28:40;1.55;;;0.60;;
83151;SDS011;73381;58.502;8.624;2023-11-18T03:31:43;1.90;;;0.52;;
83151;SDS011;73381;58.502;8.624;2023-11-18T03:34:45;0.47;;;0.30;;
83151;SDS011;73381;58.502;8.624;2023-11-18T03:37:47;1.73;;;0.65;;
83151;SDS011;73381;58.502;8.624;2023-11-18T03:40:49;1.08;;;0.40;;
83151;SDS011;73381;58.502;8.624;2023-11-18T03:43:53;1.92;;;0.75;;
83151;SDS011;73381;58.502;8.624;2023-11-18T03:46:55;1.13;;;0.50;;
83151;SDS011;73381;58.502;8.624;2023-11-18T03:50:03;2.20;;;0.57;;
83151;SDS011;73381;58.502;8.624;2023-11-18T03:53:06;0.35;;;0.10;;
83151;SDS011;73381;58.502;8.624;2023-11-18T03:56:09;1.63;;;0.57;;
83151;SDS011;73381;58.502;8.624;2023-11-18T03:59:12;1.63;;;0.57;;
83151;SDS011;73381;58.502;8.624;2023-11-18T04:02:14;2.05;;;0.60;;
83151;SDS011;73381;58.502;8.624;2023-11-18T04:05:16;0.38;;;0.22;;
83151;SDS011;73381;58.502;8.624;2023-11-18T04:08:18;1.27;;;0.57;;
83151;SDS011;73381;58.502;8.624;2023-11-18T04:11:20;1.80;;;0.75;;
83151;SDS011;73381;58.502;8.624;2023-11-18T04:14:23;1.17;;;0.47;;
83151;SDS011;73381;58.502;8.624;2023-11-18T04:17:25;1.00;;;0.50;;
83151;SDS011;73381;58.502;8.624;2023-11-18T04:20:27;0.38;;;0.30;;
83151;SDS011;73381;58.502;8.624;2023-11-18T04:26:32;0.90;;;0.32;;
83151;SDS011;73381;58.502;8.624;2023-11-18T04:29:35;0.75;;;0.30;;
83151;SDS011;73381;58.502;8.624;2023-11-18T04:32:37;1.33;;;0.50;;
83151;SDS011;73381;58.502;8.624;2023-11-18T04:35:39;4.43;;;0.50;;
83151;SDS011;73381;58.502;8.624;2023-11-18T04:38:41;0.63;;;0.30;;
83151;SDS011;73381;58.502;8.624;2023-11-18T04:41:43;0.60;;;0.32;;
83151;SDS011;73381;58.502;8.624;2023-11-18T04:44:46;1.67;;;0.75;;
83151;SDS011;73381;58.502;8.624;2023-11-18T04:47:48;1.33;;;0.70;;
83151;SDS011;73381;58.502;8.624;2023-11-18T04:50:56;0.60;;;0.35;;
83151;SDS011;73381;58.502;8.624;2023-11-18T04:53:58;2.75;;;0.47;;
83151;SDS011;73381;58.502;8.624;2023-11-18T04:57:00;1.17;;;0.40;;
83151;SDS011;73381;58.502;8.624;2023-11-18T05:00:04;1.95;;;0.40;;
83151;SDS011;73381;58.502;8.624;2023-11-18T05:03:07;1.40;;;0.55;;
83151;SDS011;73381;58.502;8.624;2023-11-18T05:06:09;0.98;;;0.60;;
83151;SDS011;73381;58.502;8.624;2023-11-18T05:09:11;1.23;;;0.60;;
83151;SDS011;73381;58.502;8.624;2023-11-18T05:12:13;2.15;;;0.77;;
83151;SDS011;73381;58.502;8.624;2023-11-18T05:15:17;2.15;;;0.68;;
83151;SDS011;73381;58.502;8.624;2023-11-18T05:18:19;1.08;;;0.35;;
83151;SDS011;73381;58.502;8.624;2023-11-18T05:21:22;1.83;;;0.60;;
83151;SDS011;73381;58.502;8.624;2023-11-18T05:24:24;2.35;;;0.63;;
83151;SDS011;73381;58.502;8.624;2023-11-18T05:27:26;1.17;;;0.45;;
83151;SDS011;73381;58.502;8.624;2023-11-18T05:30:30;0.93;;;0.30;;
83151;SDS011;73381;58.502;8.624;2023-11-18T05:33:32;1.90;;;0.57;;
83151;SDS011;73381;58.502;8.624;2023-11-18T05:36:35;2.50;;;0.70;;
83151;SDS011;73381;58.502;8.624;2023-11-18T05:39:36;1.77;;;0.70;;
83151;SDS011;73381;58.502;8.624;2023-11-18T05:42:38;0.95;;;0.47;;
83151;SDS011;73381;58.502;8.624;2023-11-18T05:45:42;1.30;;;0.80;;
83151;SDS011;73381;58.502;8.624;2023-11-18T05:48:44;2.10;;;0.68;;
83151;SDS011;73381;58.502;8.624;2023-11-18T05:51:46;1.13;;;0.40;;
83151;SDS011;73381;58.502;8.624;2023-11-18T05:54:48;1.08;;;0.40;;
83151;SDS011;73381;58.502;8.624;2023-11-18T05:57:50;1.67;;;0.65;;
83151;SDS011;73381;58.502;8.624;2023-11-18T06:00:54;2.47;;;0.90;;
83151;SDS011;73381;58.502;8.624;2023-11-18T06:03:56;1.88;;;0.88;;
83151;SDS011;73381;58.502;8.624;2023-11-18T06:06:58;1.02;;;0.40;;
83151;SDS011;73381;58.502;8.624;2023-11-18T06:10:00;1.25;;;0.43;;
83151;SDS011;73381;58.502;8.624;2023-11-18T06:13:02;2.50;;;0.82;;
83151;SDS011;73381;58.502;8.624;2023-11-18T06:16:06;1.13;;;0.45;;
83151;SDS011;73381;58.502;8.624;2023-11-18T06:19:08;2.13;;;0.50;;
83151;SDS011;73381;58.502;8.624;2023-11-18T06:22:10;1.75;;;0.50;;
83151;SDS011;73381;58.502;8.624;2023-11-18T06:25:12;2.28;;;0.75;;
83151;SDS011;73381;58.502;8.624;2023-11-18T06:28:14;2.72;;;0.80;;
83151;SDS011;73381;58.502;8.624;2023-11-18T06:31:18;0.75;;;0.25;;
83151;SDS011;73381;58.502;8.624;2023-11-18T06:34:20;0.25;;;0.00;;
83151;SDS011;73381;58.502;8.624;2023-11-18T06:37:22;0.95;;;0.30;;
83151;SDS011;73381;58.502;8.624;2023-11-18T06:40:24;0.98;;;0.35;;
83151;SDS011;73381;58.502;8.624;2023-11-18T06:43:25;0.47;;;0.30;;
83151;SDS011;73381;58.502;8.624;2023-11-18T06:46:29;0.85;;;0.40;;
83151;SDS011;73381;58.502;8.624;2023-11-18T06:49:32;0.77;;;0.28;;
83151;SDS011;73381;58.502;8.624;2023-11-18T06:52:36;1.70;;;0.55;;
83151;SDS011;73381;58.502;8.624;2023-11-18T06:55:38;2.20;;;0.40;;
83151;SDS011;73381;58.502;8.624;2023-11-18T06:58:40;0.98;;;0.40;;
83151;SDS011;73381;58.502;8.624;2023-11-18T07:01:43;1.08;;;0.30;;
83151;SDS011;73381;58.502;8.624;2023-11-18T07:04:47;1.85;;;0.52;;
83151;SDS011;73381;58.502;8.624;2023-11-18T07:07:49;0.93;;;0.43;;
83151;SDS011;73381;58.502;8.624;2023-11-18T07:10:51;0.13;;;0.10;;
83151;SDS011;73381;58.502;8.624;2023-11-18T07:13:53;2.33;;;0.90;;
83151;SDS011;73381;58.502;8.624;2023-11-18T07:16:56;1.40;;;0.65;;
83151;SDS011;73381;58.502;8.624;2023-11-18T07:19:58;1.33;;;0.57;;
83151;SDS011;73381;58.502;8.624;2023-11-18T07:23:00;0.85;;;0.32;;
83151;SDS011;73381;58.502;8.624;2023-11-18T07:26:02;2.22;;;0.70;;
83151;SDS011;73381;58.502;8.624;2023-11-18T07:29:05;2.25;;;0.50;;
83151;SDS011;73381;58.502;8.624;2023-11-18T07:32:09;1.92;;;0.68;;
83151;SDS011;73381;58.502;8.624;2023-11-18T07:35:11;1.20;;;0.52;;
83151;SDS011;73381;58.502;8.624;2023-11-18T07:38:14;1.98;;;0.60;;
83151;SDS011;73381;58.502;8.624;2023-11-18T07:41:17;0.77;;;0.30;;
83151;SDS011;73381;58.502;8.624;2023-11-18T07:44:19;1.30;;;0.55;;
83151;SDS011;73381;58.502;8.624;2023-11-18T07:47:22;2.35;;;0.63;;
83151;SDS011;73381;58.502;8.624;2023-11-18T07:50:24;1.10;;;0.50;;
83151;SDS011;73381;58.502;8.624;2023-11-18T07:53:27;2.28;;;0.70;;
83151;SDS011;73381;58.502;8.624;2023-11-18T07:56:29;1.60;;;0.70;;
83151;SDS011;73381;58.502;8.624;2023-11-18T07:59:32;0.57;;;0.28;;
83151;SDS011;73381;58.502;8.624;2023-11-18T08:02:36;1.08;;;0.50;;
83151;SDS011;73381;58.502;8.624;2023-11-18T08:05:38;1.23;;;0.60;;
83151;SDS011;73381;58.502;8.624;2023-11-18T08:08:40;1.30;;;0.43;;
83151;SDS011;73381;58.502;8.624;2023-11-18T08:11:42;3.20;;;0.73;;
83151;SDS011;73381;58.502;8.624;2023-11-18T08:14:44;1.23;;;0.45;;
83151;SDS011;73381;58.502;8.624;2023-11-18T08:17:47;0.95;;;0.28;;
83151;SDS011;73381;58.502;8.624;2023-11-18T08:20:50;1.27;;;0.50;;
83151;SDS011;73381;58.502;8.624;2023-11-18T08:23:51;0.30;;;0.10;;
83151;SDS011;73381;58.502;8.624;2023-11-18T08:26:54;0.77;;;0.30;;
83151;SDS011;73381;58.502;8.624;2023-11-18T08:29:57;1.05;;;0.43;;
83151;SDS011;73381;58.502;8.624;2023-11-18T08:33:01;1.02;;;0.40;;
83151;SDS011;73381;58.502;8.624;2023-11-18T08:36:07;1.35;;;0.57;;
83151;SDS011;73381;58.502;8.624;2023-11-18T08:39:09;1.52;;;0.57;;
83151;SDS011;73381;58.502;8.624;2023-11-18T08:42:12;1.00;;;0.40;;
83151;SDS011;73381;58.502;8.624;2023-11-18T08:45:15;1.33;;;0.55;;
83151;SDS011;73381;58.502;8.624;2023-11-18T08:48:19;1.70;;;0.85;;
83151;SDS011;73381;58.502;8.624;2023-11-18T08:51:21;2.58;;;0.82;;
83151;SDS011;73381;58.502;8.624;2023-11-18T08:54:23;2.00;;;0.80;;
83151;SDS011;73381;58.502;8.624;2023-11-18T08:57:25;3.15;;;1.10;;
83151;SDS011;73381;58.502;8.624;2023-11-18T09:00:27;2.58;;;0.85;;
83151;SDS011;73381;58.502;8.624;2023-11-18T09:03:32;1.83;;;0.60;;
83151;SDS011;73381;58.502;8.624;2023-11-18T09:06:33;0.98;;;0.40;;
83151;SDS011;73381;58.502;8.624;2023-11-18T09:09:35;2.17;;;0.80;;
83151;SDS011;73381;58.502;8.624;2023-11-18T09:12:37;1.30;;;0.70;;
83151;SDS011;73381;58.502;8.624;2023-11-18T09:15:39;2.17;;;0.77;;
83151;SDS011;73381;58.502;8.624;2023-11-18T09:18:43;1.83;;;0.80;;
83151;SDS011;73381;58.502;8.624;2023-11-18T09:21:45;2.63;;;0.90;;
83151;SDS011;73381;58.502;8.624;2023-11-18T09:24:47;1.63;;;0.68;;
83151;SDS011;73381;58.502;8.624;2023-11-18T09:27:49;1.75;;;0.60;;
83151;SDS011;73381;58.502;8.624;2023-11-18T09:30:51;2.58;;;0.73;;
83151;SDS011;73381;58.502;8.624;2023-11-18T09:33:54;0.98;;;0.38;;
83151;SDS011;73381;58.502;8.624;2023-11-18T09:36:56;1.77;;;0.47;;
83151;SDS011;73381;58.502;8.624;2023-11-18T09:39:59;1.20;;;0.45;;
83151;SDS011;73381;58.502;8.624;2023-11-18T09:43:01;1.13;;;0.50;;
83151;SDS011;73381;58.502;8.624;2023-11-18T09:46:04;2.53;;;0.70;;
83151;SDS011;73381;58.502;8.624;2023-11-18T09:49:11;1.50;;;0.73;;
83151;SDS011;73381;58.502;8.624;2023-11-18T09:52:28;1.98;;;0.73;;
83151;SDS011;73381;58.502;8.624;2023-11-18T09:55:36;0.55;;;0.30;;
83151;SDS011;73381;58.502;8.624;2023-11-18T09:58:45;1.05;;;0.40;;
83151;SDS011;73381;58.502;8.624;2023-11-18T10:01:56;1.00;;;0.38;;
83151;SDS011;73381;58.502;8.624;2023-11-18T10:05:01;1.63;;;0.45;;
83151;SDS011;73381;58.502;8.624;2023-11-18T10:08:06;1.75;;;0.70;;
83151;SDS011;73381;58.502;8.624;2023-11-18T10:11:08;0.57;;;0.40;;
83151;SDS011;73381;58.502;8.624;2023-11-18T10:14:10;1.73;;;0.60;;
83151;SDS011;73381;58.502;8.624;2023-11-18T10:17:12;1.23;;;0.40;;
83151;SDS011;73381;58.502;8.624;2023-11-18T10:20:15;1.05;;;0.30;;
83151;SDS011;73381;58.502;8.624;2023-11-18T10:23:18;1.08;;;0.38;;
83151;SDS011;73381;58.502;8.624;2023-11-18T10:26:24;0.65;;;0.43;;
83151;SDS011;73381;58.502;8.624;2023-11-18T10:29:26;1.25;;;0.40;;
83151;SDS011;73381;58.502;8.624;2023-11-18T10:32:30;1.05;;;0.45;;
83151;SDS011;73381;58.502;8.624;2023-11-18T10:35:34;1.75;;;0.50;;
83151;SDS011;73381;58.502;8.624;2023-11-18T10:38:37;1.63;;;0.50;;
83151;SDS011;73381;58.502;8.624;2023-11-18T10:41:40;1.35;;;0.60;;
83151;SDS011;73381;58.502;8.624;2023-11-18T10:44:51;1.30;;;0.40;;
83151;SDS011;73381;58.502;8.624;2023-11-18T10:47:56;1.35;;;0.52;;
83151;SDS011;73381;58.502;8.624;2023-11-18T10:51:01;3.58;;;0.85;;
83151;SDS011;73381;58.502;8.624;2023-11-18T10:54:04;1.33;;;0.60;;
83151;SDS011;73381;58.502;8.624;2023-11-18T10:57:07;1.92;;;0.82;;
83151;SDS011;73381;58.502;8.624;2023-11-18T11:00:11;1.63;;;0.57;;
83151;SDS011;73381;58.502;8.624;2023-11-18T11:03:13;2.33;;;0.77;;
83151;SDS011;73381;58.502;8.624;2023-11-18T11:06:17;1.42;;;0.52;;
83151;SDS011;73381;58.502;8.624;2023-11-18T11:09:21;3.17;;;1.10;;
83151;SDS011;73381;58.502;8.624;2023-11-18T11:12:25;1.95;;;0.80;;
83151;SDS011;73381;58.502;8.624;2023-11-18T11:15:29;1.63;;;0.50;;
83151;SDS011;73381;58.502;8.624;2023-11-18T11:18:39;1.60;;;0.60;;
83151;SDS011;73381;58.502;8.624;2023-11-18T11:21:50;3.15;;;0.47;;
83151;SDS011;73381;58.502;8.624;2023-11-18T11:25:03;3.55;;;0.50;;
83151;SDS011;73381;58.502;8.624;2023-11-18T11:28:11;1.70;;;0.60;;
83151;SDS011;73381;58.502;8.624;2023-11-18T11:31:21;2.80;;;0.52;;
83151;SDS011;73381;58.502;8.624;2023-11-18T11:34:32;1.15;;;0.52;;
83151;SDS011;73381;58.502;8.624;2023-11-18T11:37:38;1.65;;;0.73;;
83151;SDS011;73381;58.502;8.624;2023-11-18T11:40:42;1.15;;;0.30;;
83151;SDS011;73381;58.502;8.624;2023-11-18T11:43:44;1.02;;;0.40;;
83151;SDS011;73381;58.502;8.624;2023-11-18T11:46:47;1.35;;;0.43;;
83151;SDS011;73381;58.502;8.624;2023-11-18T11:49:54;1.20;;;0.32;;
83151;SDS011;73381;58.502;8.624;2023-11-18T11:53:05;1.48;;;0.32;;
83151;SDS011;73381;58.502;8.624;2023-11-18T11:56:18;1.45;;;0.40;;
83151;SDS011;73381;58.502;8.624;2023-11-18T11:59:34;0.95;;;0.30;;
83151;SDS011;73381;58.502;8.624;2023-11-18T12:02:37;0.77;;;0.30;;
83151;SDS011;73381;58.502;8.624;2023-11-18T12:05:39;0.45;;;0.22;;
83151;SDS011;73381;58.502;8.624;2023-11-18T12:08:44;1.20;;;0.57;;
83151;SDS011;73381;58.502;8.624;2023-11-18T12:11:48;1.38;;;0.32;;
83151;SDS011;73381;58.502;8.624;2023-11-18T12:14:50;0.85;;;0.28;;
83151;SDS011;73381;58.502;8.624;2023-11-18T12:21:11;1.52;;;0.35;;
83151;SDS011;73381;58.502;8.624;2023-11-18T12:24:35;1.27;;;0.40;;
83151;SDS011;73381;58.502;8.624;2023-11-18T12:27:40;0.90;;;0.30;;
83151;SDS011;73381;58.502;8.624;2023-11-18T12:30:44;2.00;;;0.60;;
83151;SDS011;73381;58.502;8.624;2023-11-18T12:34:02;0.52;;;0.15;;
83151;SDS011;73381;58.502;8.624;2023-11-18T12:37:15;2.38;;;0.40;;
83151;SDS011;73381;58.502;8.624;2023-11-18T12:44:02;1.15;;;0.43;;
83151;SDS011;73381;58.502;8.624;2023-11-18T12:47:17;1.25;;;0.47;;
83151;SDS011;73381;58.502;8.624;2023-11-18T12:50:33;2.08;;;0.30;;
83151;SDS011;73381;58.502;8.624;2023-11-18T12:56:39;1.63;;;0.60;;
83151;SDS011;73381;58.502;8.624;2023-11-18T12:59:43;1.90;;;0.70;;
83151;SDS011;73381;58.502;8.624;2023-11-18T13:02:45;1.92;;;0.68;;
83151;SDS011;73381;58.502;8.624;2023-11-18T13:05:49;1.52;;;0.68;;
83151;SDS011;73381;58.502;8.624;2023-11-18T13:08:52;2.67;;;0.68;;
83151;SDS011;73381;58.502;8.624;2023-11-18T13:11:59;4.45;;;0.90;;
83151;SDS011;73381;58.502;8.624;2023-11-18T13:15:05;12.93;;;0.93;;
83151;SDS011;73381;58.502;8.624;2023-11-18T13:18:08;4.18;;;1.35;;
83151;SDS011;73381;58.502;8.624;2023-11-18T13:21:13;5.03;;;0.98;;
83151;SDS011;73381;58.502;8.624;2023-11-18T13:24:19;3.72;;;1.00;;
83151;SDS011;73381;58.502;8.624;2023-11-18T13:27:23;2.17;;;0.85;;
83151;SDS011;73381;58.502;8.624;2023-11-18T13:30:26;2.72;;;0.63;;
83151;SDS011;73381;58.502;8.624;2023-11-18T13:33:28;2.63;;;1.08;;
83151;SDS011;73381;58.502;8.624;2023-11-18T13:36:30;3.78;;;1.00;;
83151;SDS011;73381;58.502;8.624;2023-11-18T13:39:33;3.40;;;1.00;;
83151;SDS011;73381;58.502;8.624;2023-11-18T13:42:37;2.22;;;1.05;;
83151;SDS011;73381;58.502;8.624;2023-11-18T13:45:40;2.30;;;0.90;;
83151;SDS011;73381;58.502;8.624;2023-11-18T13:48:46;1.58;;;0.65;;
83151;SDS011;73381;58.502;8.624;2023-11-18T13:51:48;2.58;;;0.70;;
83151;SDS011;73381;58.502;8.624;2023-11-18T13:57:54;2.53;;;0.82;;
83151;SDS011;73381;58.502;8.624;2023-11-18T14:00:58;1.70;;;0.80;;
83151;SDS011;73381;58.502;8.624;2023-11-18T14:04:01;2.25;;;0.95;;
83151;SDS011;73381;58.502;8.624;2023-11-18T14:07:04;2.03;;;0.88;;
83151;SDS011;73381;58.502;8.624;2023-11-18T14:10:06;3.10;;;0.57;;
83151;SDS011;73381;58.502;8.624;2023-11-18T14:13:10;2.05;;;0.80;;
83151;SDS011;73381;58.502;8.624;2023-11-18T14:16:17;1.63;;;0.60;;
83151;SDS011;73381;58.502;8.624;2023-11-18T14:19:19;1.83;;;0.77;;
83151;SDS011;73381;58.502;8.624;2023-11-18T14:22:21;1.48;;;0.73;;
83151;SDS011;73381;58.502;8.624;2023-11-18T14:28:27;2.65;;;0.73;;
83151;SDS011;73381;58.502;8.624;2023-11-18T14:31:29;1.48;;;0.70;;
83151;SDS011;73381;58.502;8.624;2023-11-18T14:34:31;2.40;;;0.85;;
83151;SDS011;73381;58.502;8.624;2023-11-18T14:37:37;1.25;;;0.52;;
83151;SDS011;73381;58.502;8.624;2023-11-18T14:40:40;4.55;;;0.93;;
83151;SDS011;73381;58.502;8.624;2023-11-18T14:43:43;2.60;;;1.00;;
83151;SDS011;73381;58.502;8.624;2023-11-18T14:46:46;3.13;;;1.08;;
83151;SDS011;73381;58.502;8.624;2023-11-18T14:49:49;3.65;;;1.42;;
83151;SDS011;73381;58.502;8.624;2023-11-18T14:52:51;3.05;;;1.15;;
83151;SDS011;73381;58.502;8.624;2023-11-18T14:55:53;3.03;;;1.08;;
83151;SDS011;73381;58.502;8.624;2023-11-18T14:58:57;2.47;;;0.90;;
83151;SDS011;73381;58.502;8.624;2023-11-18T15:02:00;3.20;;;1.30;;
83151;SDS011;73381;58.502;8.624;2023-11-18T15:05:02;6.68;;;1.95;;
83151;SDS011;73381;58.502;8.624;2023-11-18T15:08:05;2.30;;;1.02;;
83151;SDS011;73381;58.502;8.624;2023-11-18T15:11:07;3.33;;;1.80;;
83151;SDS011;73381;58.502;8.624;2023-11-18T15:14:11;3.95;;;1.60;;
83151;SDS011;73381;58.502;8.624;2023-11-18T15:17:12;3.63;;;1.10;;
83151;SDS011;73381;58.502;8.624;2023-11-18T15:20:14;2.92;;;1.20;;
83151;SDS011;73381;58.502;8.624;2023-11-18T15:23:17;2.85;;;1.00;;
83151;SDS011;73381;58.502;8.624;2023-11-18T15:26:20;4.10;;;1.77;;
83151;SDS011;73381;58.502;8.624;2023-11-18T15:29:23;3.63;;;1.30;;
83151;SDS011;73381;58.502;8.624;2023-11-18T15:32:25;4.35;;;0.93;;
83151;SDS011;73381;58.502;8.624;2023-11-18T15:35:27;2.80;;;1.00;;
83151;SDS011;73381;58.502;8.624;2023-11-18T15:38:30;5.65;;;1.90;;
83151;SDS011;73381;58.502;8.624;2023-11-18T15:41:32;5.75;;;1.60;;
83151;SDS011;73381;58.502;8.624;2023-11-18T15:44:35;3.50;;;1.50;;
83151;SDS011;73381;58.502;8.624;2023-11-18T15:47:37;2.78;;;1.10;;
83151;SDS011;73381;58.502;8.624;2023-11-18T15:50:40;4.03;;;1.60;;
83151;SDS011;73381;58.502;8.624;2023-11-18T15:53:42;5.10;;;1.38;;
83151;SDS011;73381;58.502;8.624;2023-11-18T15:56:44;4.70;;;1.23;;
83151;SDS011;73381;58.502;8.624;2023-11-18T15:59:47;4.25;;;1.30;;
83151;SDS011;73381;58.502;8.624;2023-11-18T16:02:50;3.47;;;1.70;;
83151;SDS011;73381;58.502;8.624;2023-11-18T16:05:53;3.42;;;1.38;;
83151;SDS011;73381;58.502;8.624;2023-11-18T16:08:55;4.05;;;1.50;;
83151;SDS011;73381;58.502;8.624;2023-11-18T16:11:57;4.78;;;1.77;;
83151;SDS011;73381;58.502;8.624;2023-11-18T16:15:01;2.75;;;1.08;;
83151;SDS011;73381;58.502;8.624;2023-11-18T16:18:05;5.85;;;2.97;;
83151;SDS011;73381;58.502;8.624;2023-11-18T16:21:07;3.88;;;1.77;;
83151;SDS011;73381;58.502;8.624;2023-11-18T16:27:11;2.35;;;1.30;;
83151;SDS011;73381;58.502;8.624;2023-11-18T16:30:14;2.88;;;1.27;;
83151;SDS011;73381;58.502;8.624;2023-11-18T16:33:18;2.88;;;0.70;;
83151;SDS011;73381;58.502;8.624;2023-11-18T16:36:20;7.53;;;1.42;;
83151;SDS011;73381;58.502;8.624;2023-11-18T16:39:23;2.67;;;1.08;;
83151;SDS011;73381;58.502;8.624;2023-11-18T16:42:26;3.90;;;1.40;;
83151;SDS011;73381;58.502;8.624;2023-11-18T16:45:30;3.70;;;1.50;;
83151;SDS011;73381;58.502;8.624;2023-11-18T16:48:32;4.15;;;1.27;;
83151;SDS011;73381;58.502;8.624;2023-11-18T16:51:34;4.43;;;1.45;;
83151;SDS011;73381;58.502;8.624;2023-11-18T16:54:36;3.40;;;1.10;;
83151;SDS011;73381;58.502;8.624;2023-11-18T16:57:42;4.65;;;1.40;;
83151;SDS011;73381;58.502;8.624;2023-11-18T17:00:46;2.90;;;1.50;;
83151;SDS011;73381;58.502;8.624;2023-11-18T17:03:48;2.47;;;1.02;;
83151;SDS011;73381;58.502;8.624;2023-11-18T17:06:51;3.55;;;1.40;;
83151;SDS011;73381;58.502;8.624;2023-11-18T17:09:53;3.50;;;1.10;;
83151;SDS011;73381;58.502;8.624;2023-11-18T17:12:55;4.47;;;1.40;;
83151;SDS011;73381;58.502;8.624;2023-11-18T17:15:59;4.32;;;2.30;;
83151;SDS011;73381;58.502;8.624;2023-11-18T17:19:01;6.82;;;1.67;;
83151;SDS011;73381;58.502;8.624;2023-11-18T17:22:03;5.72;;;1.35;;
83151;SDS011;73381;58.502;8.624;2023-11-18T17:25:06;3.08;;;1.25;;
83151;SDS011;73381;58.502;8.624;2023-11-18T17:28:08;3.38;;;1.55;;
83151;SDS011;73381;58.502;8.624;2023-11-18T17:31:11;5.30;;;1.70;;
83151;SDS011;73381;58.502;8.624;2023-11-18T17:34:14;6.25;;;2.00;;
83151;SDS011;73381;58.502;8.624;2023-11-18T17:37:16;3.10;;;1.30;;
83151;SDS011;73381;58.502;8.624;2023-11-18T17:40:18;7.00;;;1.98;;
83151;SDS011;73381;58.502;8.624;2023-11-18T17:43:20;3.03;;;1.30;;
83151;SDS011;73381;58.502;8.624;2023-11-18T17:46:24;3.70;;;1.60;;
83151;SDS011;73381;58.502;8.624;2023-11-18T17:49:26;3.58;;;1.52;;
83151;SDS011;73381;58.502;8.624;2023-11-18T17:52:28;5.55;;;1.60;;
83151;SDS011;73381;58.502;8.624;2023-11-18T17:55:30;3.67;;;1.52;;
83151;SDS011;73381;58.502;8.624;2023-11-18T17:58:32;3.42;;;1.25;;
83151;SDS011;73381;58.502;8.624;2023-11-18T18:01:36;4.35;;;1.63;;
83151;SDS011;73381;58.502;8.624;2023-11-18T18:04:37;4.68;;;1.30;;
83151;SDS011;73381;58.502;8.624;2023-11-18T18:07:40;3.17;;;1.48;;
83151;SDS011;73381;58.502;8.624;2023-11-18T18:10:42;3.00;;;0.98;;
83151;SDS011;73381;58.502;8.624;2023-11-18T18:13:44;2.17;;;0.95;;
83151;SDS011;73381;58.502;8.624;2023-11-18T18:16:50;2.05;;;1.13;;
83151;SDS011;73381;58.502;8.624;2023-11-18T18:19:52;4.80;;;1.67;;
83151;SDS011;73381;58.502;8.624;2023-11-18T18:22:54;4.50;;;1.70;;
83151;SDS011;73381;58.502;8.624;2023-11-18T18:25:56;4.10;;;1.30;;
83151;SDS011;73381;58.502;8.624;2023-11-18T18:28:58;4.05;;;1.83;;
83151;SDS011;73381;58.502;8.624;2023-11-18T18:32:03;3.03;;;1.23;;
83151;SDS011;73381;58.502;8.624;2023-11-18T18:35:06;3.40;;;1.48;;
83151;SDS011;73381;58.502;8.624;2023-11-18T18:38:08;7.63;;;1.52;;
83151;SDS011;73381;58.502;8.624;2023-11-18T18:41:10;3.67;;;1.48;;
83151;SDS011;73381;58.502;8.624;2023-11-18T18:44:12;4.63;;;1.70;;
83151;SDS011;73381;58.502;8.624;2023-11-18T18:47:15;3.90;;;1.50;;
83151;SDS011;73381;58.502;8.624;2023-11-18T18:50:29;5.57;;;1.88;;